Jonancy, Kentucky
Current Conditions -  °F | °C
As of 12:55 PM on Monday 24 Nov 2014 (Local Time) from KPBX Reporting Station
Overcast Overcast  
Wind Chill: 67°   Ceiling: 5500
Heat Index: 67°   Visibility: 10mi
Dew Point: 46°   Wind: 14mph
Humidity: 46%   Direction: 190°S
Pressure: 29.6"   Gusts: 28mph
Location:  37.32°N, 82.58°W
Report Text: KPBX 241755Z AUTO 19012G24KT 140V270 10SM OVC055 19/08 A2960 RMK AO2 T01940075 10196 20161
Loading
Personal Weather Stations






























Interactive Weather Map New forecast layout! Learn more

10-Day Weather Forecast

Advertisements
Track Severe Weather on mobile